Time;durP1;ratioP1;P1;durP2;ratioP2;P2;SDS_P1;SDS_P2;PMS_P1;PMS_P2;Temp;Humidity;BMP_temperature;BMP_pressure;BME280_temperature;BME280_humidity;BME280_pressure;Samples;Min_cycle;Max_cycle;Signal;HPM_P1;HPM_P2
2021/12/24 00:00:47;;;;;;;23.25;11.18;;;;;;;-14.30;100.00;101871.84;1573362;88;21078;-88
2021/12/24 00:03:15;;;;;;;21.37;8.23;;;;;;;-14.32;100.00;101871.31;1584609;88;21131;-86
2021/12/24 00:05:42;;;;;;;15.40;6.28;;;;;;;-14.35;100.00;101869.53;1581135;88;21129;-89
2021/12/24 00:08:10;;;;;;;19.40;7.72;;;;;;;-14.38;100.00;101859.39;1572982;88;21303;-88
2021/12/24 00:10:42;;;;;;;16.10;7.30;;;;;;;-14.38;100.00;101864.77;1576043;88;21101;-87
2021/12/24 00:13:14;;;;;;;22.93;8.43;;;;;;;-14.40;100.00;101872.22;1606490;88;21788;-87
2021/12/24 00:18:34;;;;;;;24.18;8.70;;;;;;;-14.40;100.00;101870.09;1561794;90;21175;-86
2021/12/24 00:37:19;;;;;;;25.97;11.57;;;;;;;-14.54;100.00;101854.05;1638570;87;21675;-87
2021/12/24 00:39:57;;;;;;;22.22;9.73;;;;;;;-14.56;100.00;101850.60;1634500;87;21074;-87
2021/12/24 00:42:18;;;;;;;21.75;11.35;;;;;;;-14.57;100.00;101843.03;1636048;87;21114;-86
2021/12/24 00:44:45;;;;;;;21.90;11.30;;;;;;;-14.56;100.00;101836.00;1624824;86;21023;-85
2021/12/24 00:47:11;;;;;;;25.77;11.22;;;;;;;-14.54;100.00;101834.03;1626802;86;21045;-85
2021/12/24 00:49:39;;;;;;;26.35;11.45;;;;;;;-14.50;100.00;101826.27;1648368;86;21047;-85
2021/12/24 00:55:06;;;;;;;25.02;12.65;;;;;;;-14.53;100.00;101819.86;1642897;86;21643;-84
2021/12/24 00:57:38;;;;;;;20.02;9.08;;;;;;;-14.53;100.00;101819.48;1634400;86;21085;-86
2021/12/24 01:00:13;;;;;;;21.33;11.00;;;;;;;-14.52;100.00;101817.45;1650176;86;21740;-88
2021/12/24 01:02:44;;;;;;;23.07;10.65;;;;;;;-14.49;100.00;101820.08;1633917;86;21153;-91
2021/12/24 01:05:13;;;;;;;28.95;13.80;;;;;;;-14.47;100.00;101816.42;1601408;86;21192;-88
2021/12/24 01:07:44;;;;;;;23.45;11.45;;;;;;;-14.48;100.00;101807.20;1617965;86;21144;-87
2021/12/24 01:10:12;;;;;;;22.67;11.73;;;;;;;-14.48;100.00;101808.45;1590399;88;21149;-89
2021/12/24 01:12:39;;;;;;;28.57;13.40;;;;;;;-14.46;100.00;101812.73;1605359;87;21157;-87
2021/12/24 01:15:08;;;;;;;30.80;13.93;;;;;;;-14.45;100.00;101811.07;1620932;86;21029;-87
2021/12/24 01:17:44;;;;;;;31.77;14.55;;;;;;;-14.46;100.00;101804.38;1612055;87;21116;-87
2021/12/24 01:20:30;;;;;;;31.65;14.05;;;;;;;-14.49;100.00;101800.47;1609795;87;21073;-87
2021/12/24 01:25:48;;;;;;;36.58;17.75;;;;;;;-14.46;100.00;101790.62;1607186;87;21621;-88
2021/12/24 01:28:35;;;;;;;29.70;15.23;;;;;;;-14.43;100.00;101788.23;1568420;89;21139;-89
2021/12/24 01:39:20;;;;;;;27.13;10.48;;;;;;;-14.32;100.00;101769.95;1617363;87;21164;-87
2021/12/24 01:44:29;;;;;;;25.55;10.35;;;;;;;-14.20;100.00;101760.88;1618567;87;21120;-86
2021/12/24 01:47:01;;;;;;;32.88;12.95;;;;;;;-14.14;100.00;101759.52;1617140;86;21575;-86
2021/12/24 01:49:29;;;;;;;33.88;11.70;;;;;;;-14.06;100.00;101748.61;1618815;87;21035;-87
2021/12/24 01:51:57;;;;;;;29.72;9.95;;;;;;;-14.01;100.00;101745.91;1600587;87;21133;-88
2021/12/24 01:54:26;;;;;;;28.60;11.15;;;;;;;-13.96;100.00;101734.42;1591884;87;21154;-88
2021/12/24 01:56:55;;;;;;;27.50;11.87;;;;;;;-13.90;100.00;101735.50;1585155;87;21091;-88
2021/12/24 01:59:22;;;;;;;29.20;11.53;;;;;;;-13.86;100.00;101734.42;1548248;90;21224;-89
2021/12/24 02:01:50;;;;;;;24.57;9.85;;;;;;;-13.82;100.00;101722.91;1617576;88;21107;-92
2021/12/24 02:04:19;;;;;;;22.90;8.65;;;;;;;-13.78;100.00;101725.99;1588934;89;21824;-91
2021/12/24 02:06:48;;;;;;;33.18;11.55;;;;;;;-13.73;100.00;101722.44;1614075;87;21169;-86
2021/12/24 02:09:15;;;;;;;22.07;7.45;;;;;;;-13.68;100.00;101721.84;1599656;87;21278;-85
2021/12/24 02:11:45;;;;;;;27.32;9.33;;;;;;;-13.62;100.00;101710.35;1590181;87;21100;-85
2021/12/24 02:14:18;;;;;;;21.68;8.88;;;;;;;-13.54;100.00;101714.03;1556650;89;21587;-88
2021/12/24 02:30:23;;;;;;;28.55;10.63;;;;;;;-13.34;100.00;101691.00;1569829;90;21177;-86
2021/12/24 02:32:50;;;;;;;31.07;11.18;;;;;;;-13.32;100.00;101684.00;1549783;90;21177;-87
2021/12/24 02:35:19;;;;;;;22.67;8.58;;;;;;;-13.27;100.00;101684.18;1561834;90;21120;-86
2021/12/24 02:37:46;;;;;;;28.83;11.43;;;;;;;-13.23;100.00;101676.38;1586821;87;21163;-87
2021/12/24 02:40:14;;;;;;;23.98;9.98;;;;;;;-13.18;100.00;101676.19;1552327;90;21225;-87
2021/12/24 02:42:48;;;;;;;26.27;9.93;;;;;;;-13.12;100.00;101670.53;1541654;92;21153;-86
2021/12/24 02:45:11;;;;;;;20.00;8.45;;;;;;;-13.07;100.00;101668.67;1580771;89;21094;-86
2021/12/24 02:47:54;;;;;;;23.50;9.38;;;;;;;-13.02;100.00;101658.41;1599686;88;21705;-86
2021/12/24 02:55:30;;;;;;;24.15;10.10;;;;;;;-12.84;100.00;101648.62;1600487;86;21172;-85
2021/12/24 02:57:57;;;;;;;24.27;8.80;;;;;;;-12.79;100.00;101638.75;1611434;88;21135;-88
2021/12/24 03:00:27;;;;;;;18.62;8.08;;;;;;;-12.75;100.00;101632.66;1594163;88;21018;-87
2021/12/24 03:02:56;;;;;;;23.70;8.05;;;;;;;-12.70;100.00;101633.67;1611588;88;21074;-86
2021/12/24 03:05:25;;;;;;;25.30;9.20;;;;;;;-12.64;100.00;101632.20;1590482;88;21098;-86
2021/12/24 03:07:54;;;;;;;18.35;8.93;;;;;;;-12.58;100.00;101626.14;1613915;88;21118;-86
2021/12/24 03:10:23;;;;;;;19.25;7.33;;;;;;;-12.53;100.00;101624.27;1611987;87;21922;-86
2021/12/24 03:12:53;;;;;;;17.82;8.25;;;;;;;-12.46;100.00;101620.70;1569177;88;22145;-86
2021/12/24 03:15:25;;;;;;;18.60;8.45;;;;;;;-12.41;100.00;101611.67;1627767;87;21050;-92
2021/12/24 03:17:57;;;;;;;21.87;8.43;;;;;;;-12.36;100.00;101611.45;1605935;89;21182;-86
2021/12/24 03:20:23;;;;;;;26.77;8.93;;;;;;;-12.32;100.00;101599.86;1564111;89;21140;-86
2021/12/24 03:23:22;;;;;;;17.57;7.80;;;;;;;-12.29;100.00;101594.54;1548818;91;21109;-88
2021/12/24 03:25:36;;;;;;;25.65;8.83;;;;;;;-12.24;100.00;101602.23;1550347;92;21062;-88
2021/12/24 03:28:03;;;;;;;20.48;8.38;;;;;;;-12.18;100.00;101596.58;1586108;90;21158;-86
2021/12/24 03:30:31;;;;;;;19.73;7.20;;;;;;;-12.14;100.00;101588.33;1585087;90;21147;-85
2021/12/24 03:32:58;;;;;;;18.15;7.95;;;;;;;-12.12;100.00;101586.73;1592685;89;21159;-86
2021/12/24 03:35:25;;;;;;;18.82;8.05;;;;;;;-12.10;100.00;101586.39;1594087;88;21106;-86
2021/12/24 03:37:53;;;;;;;14.25;6.03;;;;;;;-12.11;100.00;101584.26;1607488;87;21228;-87
2021/12/24 03:40:20;;;;;;;17.15;6.42;;;;;;;-12.08;100.00;101573.07;1599493;88;21087;-86
2021/12/24 03:42:47;;;;;;;23.62;8.83;;;;;;;-12.05;100.00;101581.94;1603081;87;21115;-86
2021/12/24 03:45:29;;;;;;;20.05;8.43;;;;;;;-12.03;100.00;101576.99;1611889;87;21764;-89
2021/12/24 03:47:56;;;;;;;15.20;6.50;;;;;;;-12.03;100.00;101574.86;1616769;87;21090;-87
2021/12/24 03:50:19;;;;;;;14.20;7.25;;;;;;;-12.02;100.00;101575.32;1575146;88;21138;-86
2021/12/24 03:55:28;;;;;;;19.40;8.35;;;;;;;-12.05;100.00;101566.03;1601098;87;21107;-90
2021/12/24 03:57:56;;;;;;;18.05;7.37;;;;;;;-12.03;100.00;101564.81;1600413;87;21177;-87
2021/12/24 04:00:34;;;;;;;18.75;7.62;;;;;;;-12.06;100.00;101561.39;1598279;87;21146;-90
2021/12/24 04:03:09;;;;;;;20.60;7.53;;;;;;;-12.11;100.00;101554.12;1584595;87;21012;-89
2021/12/24 04:05:46;;;;;;;19.20;8.45;;;;;;;-12.16;100.00;101560.66;1625390;87;21620;-89
2021/12/24 04:08:32;;;;;;;18.82;7.70;;;;;;;-12.16;100.00;101552.25;1620155;87;21125;-91
2021/12/24 04:11:02;;;;;;;16.97;6.62;;;;;;;-12.17;100.00;101548.03;1610384;87;21184;-87
2021/12/24 04:13:33;;;;;;;18.32;7.05;;;;;;;-12.19;100.00;101550.91;1623568;87;21058;-89
2021/12/24 04:16:00;;;;;;;17.27;6.85;;;;;;;-12.22;100.00;101550.00;1617837;87;21194;-88
2021/12/24 04:26:32;;;;;;;13.98;7.53;;;;;;;-12.39;100.00;101543.17;1623138;87;21118;-88
2021/12/24 04:28:59;;;;;;;14.20;6.60;;;;;;;-12.41;100.00;101538.49;1609199;87;21538;-88
2021/12/24 04:34:10;;;;;;;41.05;31.10;;;;;;;-12.51;100.00;101536.45;1627599;85;21638;-91
2021/12/24 04:36:58;;;;;;;66.67;45.63;;;;;;;-12.63;100.00;101541.06;1612028;87;21221;-89
2021/12/24 04:39:27;;;;;;;55.70;27.00;;;;;;;-12.77;100.00;101534.30;1617976;87;21037;-89
2021/12/24 04:53:12;;;;;;;22.55;8.78;;;;;;;-13.09;100.00;101518.55;1616546;87;21270;-91
2021/12/24 05:03:41;;;;;;;15.75;8.10;;;;;;;-13.04;100.00;101512.44;1535620;90;22017;-88
2021/12/24 05:08:57;;;;;;;20.08;8.03;;;;;;;-13.10;100.00;101518.12;1542039;91;21060;-88
2021/12/24 05:11:25;;;;;;;21.70;9.68;;;;;;;-13.13;100.00;101509.22;1586370;89;21143;-88
2021/12/24 05:13:54;;;;;;;37.28;11.93;;;;;;;-13.18;100.00;101515.73;1588267;87;21608;-86
2021/12/24 05:16:49;;;;;;;38.98;12.47;;;;;;;-13.20;100.00;101508.13;1580063;88;21180;-89
2021/12/24 05:22:11;;;;;;;17.35;8.20;;;;;;;-13.01;100.00;101507.14;1505371;89;21191;-90
2021/12/24 05:24:41;;;;;;;24.27;8.75;;;;;;;-12.90;100.00;101505.42;1560988;90;21660;-88
2021/12/24 05:27:08;;;;;;;23.45;8.58;;;;;;;-12.84;100.00;101501.86;1534241;91;21136;-90
2021/12/24 05:29:35;;;;;;;26.87;10.35;;;;;;;-12.82;100.00;101505.29;1544024;91;21068;-90
2021/12/24 05:32:06;;;;;;;30.85;9.75;;;;;;;-12.79;100.00;101510.81;1530023;91;21112;-87
2021/12/24 05:34:36;;;;;;;24.92;9.35;;;;;;;-12.74;100.00;101511.43;1565686;89;21078;-88
2021/12/24 05:37:03;;;;;;;16.23;7.17;;;;;;;-12.69;100.00;101504.91;1611059;88;21224;-90
2021/12/24 05:42:16;;;;;;;12.88;6.75;;;;;;;-12.57;100.00;101498.61;1834201;78;22602;-89
2021/12/24 05:44:44;;;;;;;15.93;7.08;;;;;;;-12.55;100.00;101486.98;1791985;78;21014;-86
2021/12/24 05:47:19;;;;;;;14.60;7.12;;;;;;;-12.48;100.00;101490.14;1767238;78;21230;-88
2021/12/24 05:49:48;;;;;;;14.68;6.33;;;;;;;-12.46;100.00;101488.92;1793831;79;20938;-89
2021/12/24 05:52:34;;;;;;;13.10;6.55;;;;;;;-12.43;100.00;101489.88;1814448;79;21610;-90
2021/12/24 05:55:05;;;;;;;13.03;6.63;;;;;;;-12.33;100.00;101494.80;1780731;79;21029;-90
2021/12/24 05:57:32;;;;;;;9.60;4.30;;;;;;;-12.28;100.00;101494.95;1815314;78;21017;-89
2021/12/24 06:00:04;;;;;;;18.50;6.90;;;;;;;-12.27;100.00;101491.25;1806711;78;21169;-89
2021/12/24 06:02:33;;;;;;;13.93;6.78;;;;;;;-12.24;100.00;101495.10;1785020;79;20950;-89
2021/12/24 06:05:00;;;;;;;10.82;5.53;;;;;;;-12.24;100.00;101491.75;1750457;80;21092;-88
2021/12/24 06:07:27;;;;;;;13.13;6.50;;;;;;;-12.24;100.00;101483.80;1783746;80;21025;-85
2021/12/24 06:10:00;;;;;;;14.33;7.70;;;;;;;-12.21;100.00;101479.28;1784924;79;21531;-88
2021/12/24 06:12:29;;;;;;;17.48;6.95;;;;;;;-12.17;100.00;101472.69;1783552;79;21077;-86
2021/12/24 06:15:02;;;;;;;13.93;6.27;;;;;;;-12.14;100.00;101471.55;1783884;80;20989;-86
2021/12/24 06:17:28;;;;;;;14.95;6.50;;;;;;;-12.10;100.00;101467.09;1779123;80;21045;-85
2021/12/24 06:19:55;;;;;;;12.25;5.80;;;;;;;-12.07;100.00;101470.55;1801112;78;21007;-87
2021/12/24 06:22:22;;;;;;;20.17;7.75;;;;;;;-12.06;100.00;101461.34;1779585;79;21116;-88
2021/12/24 06:24:49;;;;;;;19.70;9.03;;;;;;;-12.07;100.00;101460.50;1799365;79;21084;-89
2021/12/24 06:27:17;;;;;;;15.50;6.75;;;;;;;-12.03;100.00;101457.69;1783437;79;21542;-88
2021/12/24 06:29:44;;;;;;;16.80;7.58;;;;;;;-12.03;100.00;101450.53;1750440;80;21069;-88
2021/12/24 06:32:11;;;;;;;14.87;6.25;;;;;;;-12.01;100.00;101445.16;1751101;80;21555;-88
2021/12/24 06:34:38;;;;;;;14.10;7.60;;;;;;;-12.01;100.00;101427.58;1783323;80;20986;-87
2021/12/24 06:37:05;;;;;;;12.85;6.60;;;;;;;-12.05;100.00;101424.96;1788028;79;21589;-88
2021/12/24 06:39:32;;;;;;;14.33;6.97;;;;;;;-12.10;100.00;101418.95;1781289;79;20919;-90
2021/12/24 06:41:59;;;;;;;15.40;6.33;;;;;;;-12.07;100.00;101416.94;1781257;78;21484;-89
2021/12/24 06:44:26;;;;;;;17.07;5.87;;;;;;;-12.05;100.00;101411.14;1735775;81;21532;-87
2021/12/24 06:46:54;;;;;;;15.13;6.42;;;;;;;-12.01;100.00;101399.53;1733517;81;21003;-88
2021/12/24 06:49:22;;;;;;;16.77;7.85;;;;;;;-11.97;100.00;101394.19;1789025;78;21816;-87
2021/12/24 06:51:49;;;;;;;12.07;6.00;;;;;;;-11.93;100.00;101381.73;1766044;79;21024;-89
2021/12/24 06:54:18;;;;;;;17.82;7.05;;;;;;;-11.87;100.00;101382.33;1780254;78;21491;-89
2021/12/24 06:56:47;;;;;;;10.03;4.83;;;;;;;-11.82;100.00;101378.31;1767295;79;21101;-88
2021/12/24 06:59:14;;;;;;;16.25;7.05;;;;;;;-11.75;100.00;101388.98;1741166;80;21064;-87
2021/12/24 07:01:43;;;;;;;11.35;5.28;;;;;;;-11.66;100.00;101383.36;1786060;78;21127;-87
2021/12/24 07:04:10;;;;;;;10.82;4.97;;;;;;;-11.61;100.00;101374.70;1796952;79;21035;-89
2021/12/24 07:06:45;;;;;;;12.40;5.72;;;;;;;-11.58;100.00;101381.08;1765514;79;21544;-87
2021/12/24 07:09:07;;;;;;;12.93;7.17;;;;;;;-11.53;100.00;101390.84;1762020;79;21026;-89
2021/12/24 07:11:34;;;;;;;16.25;7.17;;;;;;;-11.46;100.00;101392.72;1765623;79;21109;-87
2021/12/24 07:14:00;;;;;;;21.80;8.85;;;;;;;-11.37;100.00;101386.23;1747165;80;21852;-89
2021/12/24 07:16:28;;;;;;;30.45;11.97;;;;;;;-11.30;100.00;101371.77;1765065;80;21097;-91
2021/12/24 07:18:55;;;;;;;22.67;9.45;;;;;;;-11.22;100.00;101362.76;1765413;80;21104;-86
2021/12/24 07:21:23;;;;;;;16.37;7.67;;;;;;;-11.17;100.00;101352.40;1778166;78;21070;-91
2021/12/24 07:23:51;;;;;;;12.98;6.37;;;;;;;-11.12;100.00;101344.97;1788633;79;21086;-92
2021/12/24 07:26:18;;;;;;;12.37;5.72;;;;;;;-11.05;100.00;101338.02;1798603;78;21858;-88
2021/12/24 07:28:47;;;;;;;11.25;6.70;;;;;;;-10.98;100.00;101320.17;1740541;79;20983;-89
2021/12/24 07:31:14;;;;;;;14.63;4.80;;;;;;;-10.92;100.00;101300.19;1796911;79;21081;-87
2021/12/24 07:33:41;;;;;;;11.22;5.22;;;;;;;-10.84;100.00;101310.45;1761932;79;21007;-86
2021/12/24 07:36:10;;;;;;;10.10;5.12;;;;;;;-10.77;100.00;101306.42;1762586;79;21560;-85
2021/12/24 07:38:37;;;;;;;14.60;7.20;;;;;;;-10.70;100.00;101311.63;1796539;79;21305;-86
2021/12/24 07:41:04;;;;;;;14.03;7.35;;;;;;;-10.60;100.00;101313.10;1793745;79;21098;-87
2021/12/24 07:43:33;;;;;;;16.27;6.90;;;;;;;-10.52;100.00;101314.97;1773986;79;20971;-85
2021/12/24 07:46:03;;;;;;;8.67;3.73;;;;;;;-10.44;100.00;101319.32;1797118;79;21496;-86
2021/12/24 07:48:33;;;;;;;11.05;5.30;;;;;;;-10.38;100.00;101310.67;1769517;79;21653;-86
2021/12/24 07:53:28;;;;;;;10.32;6.15;;;;;;;-10.31;100.00;101308.69;1768452;79;21054;-86
2021/12/24 07:55:56;;;;;;;11.12;5.25;;;;;;;-10.27;100.00;101303.31;1715841;82;22555;-86
2021/12/24 07:58:24;;;;;;;16.52;6.80;;;;;;;-10.26;100.00;101283.19;1715804;82;21105;-87
2021/12/24 08:00:51;;;;;;;10.50;4.58;;;;;;;-10.24;100.00;101257.63;1731573;81;21029;-86
2021/12/24 08:03:18;;;;;;;15.10;6.58;;;;;;;-10.21;100.00;101257.67;1737328;82;21982;-86
2021/12/24 08:05:48;;;;;;;5.55;3.27;;;;;;;-10.18;100.00;101250.19;1737675;82;21089;-85
2021/12/24 08:08:15;;;;;;;17.73;6.72;;;;;;;-10.17;100.00;101258.19;1744556;80;21022;-87
2021/12/24 08:10:42;;;;;;;27.15;14.20;;;;;;;-10.16;100.00;101252.73;1719706;80;21655;-88
2021/12/24 08:13:09;;;;;;;18.85;10.10;;;;;;;-10.14;100.00;101244.80;1705841;80;21551;-87
2021/12/24 08:15:37;;;;;;;17.75;8.20;;;;;;;-10.11;100.00;101252.43;1768330;81;21141;-89
2021/12/24 08:18:04;;;;;;;16.42;7.83;;;;;;;-10.08;100.00;101256.67;1743497;81;21057;-91
2021/12/24 08:20:31;;;;;;;15.88;8.13;;;;;;;-10.01;100.00;101244.64;1709564;82;21054;-90
2021/12/24 08:23:03;;;;;;;18.02;8.48;;;;;;;-9.97;100.00;101235.47;1790865;79;21509;-87
2021/12/24 08:25:30;;;;;;;12.82;7.10;;;;;;;-9.93;100.00;101228.00;1777992;79;21024;-87
2021/12/24 08:27:58;;;;;;;17.25;9.23;;;;;;;-9.88;100.00;101212.96;1803950;79;21078;-87
2021/12/24 08:30:25;;;;;;;15.65;6.70;;;;;;;-9.85;100.00;101205.44;1784404;79;22014;-88
2021/12/24 08:32:55;;;;;;;18.60;8.08;;;;;;;-9.83;100.00;101203.80;1782878;79;21059;-87
2021/12/24 08:35:23;;;;;;;15.38;7.67;;;;;;;-9.83;100.00;101190.81;1730796;82;21125;-86
2021/12/24 08:37:51;;;;;;;17.07;7.25;;;;;;;-9.81;100.00;101186.21;1782558;79;21537;-89
2021/12/24 08:40:18;;;;;;;12.45;6.53;;;;;;;-9.81;100.00;101187.47;1772276;79;21149;-88
2021/12/24 08:42:45;;;;;;;16.40;7.72;;;;;;;-9.80;100.00;101180.31;1796178;79;21519;-89
2021/12/24 08:45:15;;;;;;;15.43;6.70;;;;;;;-9.77;100.00;101176.60;1798403;79;21599;-88
2021/12/24 08:47:55;;;;;;;11.43;6.53;;;;;;;-9.73;100.00;101177.08;1791502;78;21024;-88
2021/12/24 08:50:23;;;;;;;14.90;6.95;;;;;;;-9.69;100.00;101170.86;1802582;78;21164;-88
2021/12/24 08:52:55;;;;;;;17.50;6.87;;;;;;;-9.65;100.00;101154.53;1806647;78;21143;-88
2021/12/24 08:55:22;;;;;;;13.00;6.95;;;;;;;-9.59;100.00;101151.72;1798394;79;20963;-88
2021/12/24 08:57:50;;;;;;;13.65;6.28;;;;;;;-9.51;100.00;101143.86;1774020;79;21049;-91
2021/12/24 09:00:21;;;;;;;14.28;6.50;;;;;;;-9.43;100.00;101126.73;1755432;79;21053;-89
2021/12/24 09:03:02;;;;;;;11.13;5.70;;;;;;;-9.38;100.00;101118.81;1793400;78;21952;-88
2021/12/24 09:05:31;;;;;;;12.07;6.10;;;;;;;-9.30;100.00;101109.69;1761171;80;22104;-88
2021/12/24 09:07:59;;;;;;;13.75;6.00;;;;;;;-9.25;100.00;101099.66;1776124;79;21382;-87
2021/12/24 09:10:26;;;;;;;14.25;7.72;;;;;;;-9.21;100.00;101087.12;1780344;79;21038;-87
2021/12/24 09:12:53;;;;;;;14.10;6.10;;;;;;;-9.13;100.00;101088.47;1812642;79;21472;-87
2021/12/24 09:15:27;;;;;;;12.00;6.22;;;;;;;-9.07;100.00;101078.88;1757515;80;21537;-86
2021/12/24 09:17:53;;;;;;;14.65;7.65;;;;;;;-8.99;100.00;101074.78;1748359;79;20996;-85
2021/12/24 09:20:28;;;;;;;18.55;7.97;;;;;;;-8.90;100.00;101062.28;1749693;80;21064;-83
2021/12/24 09:22:55;;;;;;;18.65;6.50;;;;;;;-8.67;100.00;101057.91;1776162;80;21065;-84
2021/12/24 09:25:24;;;;;;;28.50;7.12;;;;;;;-8.15;100.00;101049.97;1767611;79;21071;-91
2021/12/24 09:27:51;;;;;;;17.62;8.75;;;;;;;-7.85;100.00;101045.17;1796183;78;21026;-87
2021/12/24 09:30:19;;;;;;;22.58;7.30;;;;;;;-7.79;100.00;101040.15;1781536;79;21800;-88
2021/12/24 09:32:46;;;;;;;20.27;8.63;;;;;;;-7.88;100.00;101024.50;1749997;79;21593;-87
2021/12/24 09:35:15;;;;;;;19.30;8.40;;;;;;;-7.98;100.00;101020.20;1781320;78;21030;-89
2021/12/24 09:37:44;;;;;;;16.93;8.05;;;;;;;-8.00;100.00;101008.83;1771143;79;21100;-89
2021/12/24 09:40:13;;;;;;;16.40;8.03;;;;;;;-7.98;100.00;100998.72;1779822;79;21042;-88
2021/12/24 09:42:41;;;;;;;13.35;7.17;;;;;;;-7.96;100.00;100994.09;1805934;78;21264;-88
2021/12/24 09:45:10;;;;;;;20.50;8.85;;;;;;;-7.95;100.00;100980.63;1800679;78;21508;-86
2021/12/24 09:47:40;;;;;;;18.10;7.67;;;;;;;-7.85;100.00;100983.22;1815154;78;21034;-87
2021/12/24 09:50:12;;;;;;;15.98;8.63;;;;;;;-7.79;100.00;100964.28;1810139;79;21014;-89
2021/12/24 09:52:41;;;;;;;19.40;9.20;;;;;;;-7.82;100.00;100953.73;1780694;79;21108;-87
2021/12/24 09:55:16;;;;;;;20.52;8.45;;;;;;;-7.87;100.00;100945.29;1781507;78;21093;-86
2021/12/24 09:57:43;;;;;;;17.40;6.55;;;;;;;-7.92;100.00;100933.88;1809830;79;21511;-88
2021/12/24 10:00:14;;;;;;;17.15;8.75;;;;;;;-7.99;100.00;100919.52;1755225;79;21069;-87
2021/12/24 10:02:46;;;;;;;18.15;9.03;;;;;;;-8.03;100.00;100911.47;1795008;78;21060;-86
2021/12/24 10:05:35;;;;;;;17.17;9.43;;;;;;;-8.06;100.00;100900.09;1799957;78;21042;-86
2021/12/24 10:08:07;;;;;;;14.95;7.85;;;;;;;-8.04;100.00;100892.08;1776029;79;21693;-85
2021/12/24 10:10:41;;;;;;;16.90;8.23;;;;;;;-8.02;100.00;100881.56;1815139;78;21018;-90
2021/12/24 10:13:43;;;;;;;15.38;8.50;;;;;;;-8.00;100.00;100877.37;1810582;79;21045;-85
2021/12/24 10:16:22;;;;;;;16.15;8.75;;;;;;;-7.96;100.00;100871.48;1814294;78;21550;-88
2021/12/24 10:18:55;;;;;;;16.50;7.55;;;;;;;-7.87;100.00;100868.17;1812707;78;21511;-91
2021/12/24 10:21:27;;;;;;;17.60;9.30;;;;;;;-7.77;100.00;100862.30;1774037;79;21067;-88
2021/12/24 10:24:07;;;;;;;18.80;9.33;;;;;;;-7.69;100.00;100852.66;1786172;79;21315;-89
2021/12/24 10:26:41;;;;;;;16.02;8.95;;;;;;;-7.64;100.00;100842.97;1777556;80;21059;-89
2021/12/24 10:29:12;;;;;;;15.93;8.05;;;;;;;-7.59;100.00;100836.66;1775844;80;21034;-88
2021/12/24 10:31:52;;;;;;;14.70;7.80;;;;;;;-7.53;100.00;100824.45;1735959;80;21073;-89
2021/12/24 10:34:35;;;;;;;14.75;8.15;;;;;;;-7.49;100.00;100828.27;1765688;80;21842;-89
2021/12/24 10:37:24;;;;;;;14.78;7.60;;;;;;;-7.42;100.00;100819.02;1742762;80;21602;-92
2021/12/24 10:40:00;;;;;;;15.72;8.78;;;;;;;-7.34;100.00;100809.76;1759562;79;21654;-88
2021/12/24 10:42:36;;;;;;;13.85;8.20;;;;;;;-7.26;100.00;100801.33;1809461;77;21562;-87
2021/12/24 10:45:16;;;;;;;11.33;6.80;;;;;;;-7.18;100.00;100789.09;1778754;79;21476;-90
2021/12/24 10:47:46;;;;;;;12.50;7.45;;;;;;;-7.10;100.00;100781.52;1800330;78;21983;-89
2021/12/24 10:55:35;;;;;;;15.18;7.85;;;;;;;-6.79;100.00;100756.59;1786355;79;21134;-89
2021/12/24 10:58:14;;;;;;;16.25;8.03;;;;;;;-6.73;100.00;100751.10;1739581;79;21081;-91
2021/12/24 11:00:58;;;;;;;15.08;7.50;;;;;;;-6.57;100.00;100743.47;1685292;81;21327;-90
2021/12/24 11:03:32;;;;;;;17.85;7.87;;;;;;;-6.42;100.00;100732.46;1708146;80;21082;-89
2021/12/24 11:06:11;;;;;;;15.32;8.35;;;;;;;-6.34;100.00;100722.70;1797281;79;21005;-88
2021/12/24 11:08:40;;;;;;;12.95;8.15;;;;;;;-6.29;100.00;100723.12;1763805;78;21495;-87
2021/12/24 11:11:12;;;;;;;17.80;8.48;;;;;;;-6.27;100.00;100710.00;1812711;78;21074;-88
2021/12/24 11:13:43;;;;;;;14.70;8.23;;;;;;;-6.26;100.00;100708.75;1790981;78;21142;-91
2021/12/24 11:16:17;;;;;;;17.12;9.20;;;;;;;-6.23;100.00;100692.68;1732629;82;21047;-91
2021/12/24 11:18:52;;;;;;;19.07;8.85;;;;;;;-6.20;100.00;100682.09;1716250;82;21040;-90
2021/12/24 11:21:23;;;;;;;20.00;6.58;;;;;;;-6.00;100.00;100675.23;1737613;81;21035;-87
2021/12/24 11:23:52;;;;;;;;;;;;;;;-5.98;100.00;100663.36;1724471;82;21093;-90
2021/12/24 11:26:27;;;;;;;18.42;8.68;;;;;;;-6.01;100.00;100656.66;1714040;81;21180;-90
2021/12/24 11:28:57;;;;;;;12.95;6.65;;;;;;;-6.04;100.00;100649.88;1735894;80;21097;-88
2021/12/24 11:31:28;;;;;;;10.72;6.75;;;;;;;-6.05;100.00;100643.13;1747677;81;21427;-85
2021/12/24 11:33:58;;;;;;;;;;;;;;;-6.05;100.00;100632.98;1729047;81;21062;-87
2021/12/24 11:36:34;;;;;;;17.80;8.20;;;;;;;-6.04;100.00;100627.06;1729872;81;20510;-87
2021/12/24 11:39:06;;;;;;;18.25;8.98;;;;;;;-6.03;100.00;100622.41;1692761;83;21837;-91
2021/12/24 11:41:36;;;;;;;19.40;9.20;;;;;;;-6.00;100.00;100610.56;1737024;82;21113;-89
2021/12/24 11:44:06;;;;;;;13.78;8.05;;;;;;;-5.97;100.00;100596.58;1710550;81;21119;-89
2021/12/24 11:46:39;;;;;;;14.50;8.55;;;;;;;-5.92;100.00;100587.23;1746581;79;21047;-85
2021/12/24 11:49:07;;;;;;;15.30;9.10;;;;;;;-5.90;100.00;100574.12;1814627;78;21101;-88
2021/12/24 11:51:43;;;;;;;18.12;8.53;;;;;;;-5.88;100.00;100571.98;1818363;78;21128;-86
2021/12/24 11:54:07;;;;;;;14.65;6.72;;;;;;;-5.86;100.00;100563.95;1816477;78;21073;-87
2021/12/24 11:56:54;;;;;;;16.77;8.23;;;;;;;-5.82;100.00;100558.42;1786326;78;21040;-88
2021/12/24 11:59:39;;;;;;;14.93;7.62;;;;;;;-5.81;100.00;100546.56;1814977;78;21566;-88
2021/12/24 12:02:09;;;;;;;12.58;6.53;;;;;;;-5.81;100.00;100544.02;1792243;79;21022;-88
2021/12/24 12:04:36;;;;;;;15.67;9.40;;;;;;;-5.81;100.00;100532.20;1804555;78;21172;-88
2021/12/24 12:07:17;;;;;;;16.62;9.15;;;;;;;-5.79;100.00;100538.08;1794637;78;21393;-86
2021/12/24 12:09:46;;;;;;;;;;;;;;;-5.78;100.00;100525.81;1768170;79;20995;-87
2021/12/24 12:12:16;;;;;;;12.63;7.45;;;;;;;-5.80;100.00;100519.08;1796704;79;20201;-87
2021/12/24 12:14:42;;;;;;;15.45;8.28;;;;;;;-5.82;100.00;100522.91;1803350;79;21037;-89
2021/12/24 12:17:22;;;;;;;24.40;11.00;;;;;;;-5.84;100.00;100505.58;1705860;83;21105;-86
2021/12/24 12:20:01;;;;;;;16.73;9.95;;;;;;;-5.85;100.00;100507.70;1721930;81;21544;-87
2021/12/24 12:22:46;;;;;;;16.73;10.00;;;;;;;-5.84;100.00;100497.12;1745636;80;21073;-87
2021/12/24 12:25:13;;;;;;;17.30;9.18;;;;;;;-5.84;100.00;100491.63;1693487;81;21029;-88
2021/12/24 12:27:47;;;;;;;14.70;9.43;;;;;;;-5.84;100.00;100480.22;1755875;79;21650;-89
2021/12/24 12:30:42;;;;;;;17.50;9.28;;;;;;;-5.82;100.00;100476.39;1748061;79;21073;-87
2021/12/24 12:33:18;;;;;;;14.93;9.03;;;;;;;-5.80;100.00;100465.81;1810098;78;21535;-87
2021/12/24 12:35:58;;;;;;;14.10;9.20;;;;;;;-5.79;100.00;100463.25;1777452;79;21053;-89
2021/12/24 12:38:33;;;;;;;20.12;11.25;;;;;;;-5.76;100.00;100466.17;1743000;79;21066;-87
2021/12/24 12:41:37;;;;;;;20.23;9.58;;;;;;;-5.74;100.00;100462.80;1728351;82;21172;-86
2021/12/24 12:44:11;;;;;;;13.28;7.72;;;;;;;-5.72;100.00;100452.62;1806909;78;22019;-85
2021/12/24 12:46:45;;;;;;;18.52;10.68;;;;;;;-5.72;100.00;100445.84;1805042;78;21030;-86
2021/12/24 12:49:16;;;;;;;18.02;9.80;;;;;;;-5.70;100.00;100444.13;1760798;79;21543;-86
2021/12/24 12:52:01;;;;;;;17.37;10.08;;;;;;;-5.66;100.00;100439.86;1782333;78;21092;-86
2021/12/24 12:54:42;;;;;;;17.37;9.75;;;;;;;-5.62;100.00;100433.05;1788434;79;21080;-87
2021/12/24 12:57:19;;;;;;;14.50;9.25;;;;;;;-5.59;100.00;100427.96;1752922;78;21127;-88
2021/12/24 13:00:17;;;;;;;15.80;10.05;;;;;;;-5.57;100.00;100421.18;1813969;79;21006;-86
2021/12/24 13:05:44;;;;;;;15.72;8.80;;;;;;;-5.49;100.00;100411.78;1804026;79;21041;-86
2021/12/24 13:08:34;;;;;;;15.23;8.60;;;;;;;-5.47;100.00;100396.08;1738016;80;21102;-90